createdAt,value
2018-11-28T00:03:05.686Z,28.92
2018-11-28T00:07:58.996Z,25.80
2018-11-28T00:12:52.494Z,28.73
2018-11-28T00:17:45.768Z,31.62
2018-11-28T00:22:39.103Z,34.90
2018-11-28T00:27:32.422Z,26.57
2018-11-28T00:32:26.768Z,29.72
2018-11-28T00:37:20.048Z,29.15
2018-11-28T00:42:13.367Z,31.15
2018-11-28T00:47:06.673Z,33.90
2018-11-28T00:51:59.949Z,29.50
2018-11-28T00:56:53.236Z,30.15
2018-11-28T01:01:46.464Z,28.85
2018-11-28T01:06:39.780Z,28.12
2018-11-28T01:11:33.047Z,31.25
2018-11-28T01:16:26.395Z,32.10
2018-11-28T01:21:19.643Z,30.32
2018-11-28T01:26:12.940Z,30.23
2018-11-28T01:31:06.673Z,35.50
2018-11-28T01:35:59.956Z,30.60
2018-11-28T01:40:53.595Z,31.87
2018-11-28T01:45:46.857Z,32.85
2018-11-28T01:50:40.154Z,29.15
2018-11-28T01:55:33.439Z,29.40
2018-11-28T02:00:27.143Z,28.32
2018-11-28T02:05:20.458Z,30.65
2018-11-28T02:10:15.505Z,28.40
2018-11-28T02:15:11.137Z,30.00
2018-11-28T02:20:07.771Z,33.08
2018-11-28T02:25:01.694Z,31.05
2018-11-28T02:29:54.971Z,32.98
2018-11-28T02:34:48.277Z,32.67
2018-11-28T02:39:41.562Z,29.18
2018-11-28T02:44:34.838Z,31.65
2018-11-28T02:49:28.127Z,30.43
2018-11-28T02:54:22.083Z,27.37
2018-11-28T02:59:15.309Z,29.87
2018-11-28T03:04:08.606Z,28.70
2018-11-28T03:09:01.903Z,29.55
2018-11-28T03:13:55.168Z,29.25
2018-11-28T03:18:48.458Z,33.98
2018-11-28T03:23:41.767Z,29.32
2018-11-28T03:28:35.065Z,31.82
2018-11-28T03:33:28.418Z,32.15
2018-11-28T03:38:21.723Z,32.83
2018-11-28T03:43:15.019Z,34.53
2018-11-28T03:48:08.281Z,31.90
2018-11-28T03:53:01.564Z,33.25
2018-11-28T03:57:54.827Z,32.15
2018-11-28T04:02:49.765Z,30.45
2018-11-28T04:07:43.057Z,32.28
2018-11-28T04:12:37.568Z,32.65
2018-11-28T04:17:30.863Z,32.83
2018-11-28T04:22:24.125Z,34.20
2018-11-28T04:27:17.401Z,30.57
2018-11-28T04:32:10.693Z,30.80
2018-11-28T04:37:03.962Z,31.57
2018-11-28T04:43:00.319Z,31.00
2018-11-28T04:47:55.079Z,35.65
2018-11-28T04:52:48.416Z,31.68
2018-11-28T04:57:41.778Z,30.02
2018-11-28T05:02:35.120Z,33.25
2018-11-28T05:07:29.603Z,32.60
2018-11-28T05:12:22.970Z,30.10
2018-11-28T05:17:16.337Z,32.28
2018-11-28T05:22:09.613Z,31.17
2018-11-28T05:27:03.011Z,34.58
2018-11-28T05:31:56.307Z,32.75
2018-11-28T05:36:49.559Z,34.67
2018-11-28T05:41:43.918Z,34.53
2018-11-28T05:46:37.216Z,32.45
2018-11-28T05:51:31.595Z,34.90
2018-11-28T05:56:24.838Z,35.65
2018-11-28T06:01:18.709Z,31.52
2018-11-28T06:06:12.024Z,31.70
2018-11-28T06:11:05.936Z,31.70
2018-11-28T06:15:59.187Z,32.25
2018-11-28T06:20:52.551Z,33.70
2018-11-28T06:25:45.850Z,33.10
2018-11-28T06:30:39.081Z,31.50
2018-11-28T06:35:32.372Z,34.05
2018-11-28T06:40:25.631Z,35.05
2018-11-28T06:45:20.877Z,34.43
2018-11-28T06:50:15.703Z,33.40
2018-11-28T06:55:12.072Z,31.40
2018-11-28T07:00:11.264Z,34.10
2018-11-28T07:05:05.463Z,34.25
2018-11-28T07:09:58.859Z,33.13
2018-11-28T07:14:52.103Z,31.33
2018-11-28T07:19:45.373Z,33.35
2018-11-28T07:24:38.636Z,32.20
2018-11-28T07:29:31.883Z,30.55
2018-11-28T07:34:25.184Z,36.08
2018-11-28T07:39:18.441Z,36.23
2018-11-28T07:44:11.693Z,34.45
2018-11-28T07:49:05.005Z,33.13
2018-11-28T07:53:58.343Z,32.85
2018-11-28T07:58:51.638Z,29.50
2018-11-28T08:03:44.963Z,36.13
2018-11-28T08:08:38.254Z,32.10
2018-11-28T08:13:31.562Z,31.75
2018-11-28T08:18:24.902Z,33.48
2018-11-28T08:23:18.178Z,34.33
2018-11-28T08:28:11.455Z,35.75
2018-11-28T08:33:04.907Z,33.73
2018-11-28T08:37:58.156Z,31.33
2018-11-28T08:42:51.784Z,36.25
2018-11-28T08:47:46.720Z,30.68
2018-11-28T08:52:40.025Z,29.35
2018-11-28T08:57:33.324Z,32.95
2018-11-28T09:02:26.605Z,30.20
2018-11-28T09:07:19.909Z,31.40
2018-11-28T09:12:13.170Z,29.67
2018-11-28T09:17:06.777Z,29.90
2018-11-28T09:22:00.097Z,28.62
2018-11-28T09:26:53.398Z,30.12
2018-11-28T09:31:46.710Z,25.90
2018-11-28T09:36:39.942Z,28.05
2018-11-28T09:41:33.219Z,31.87
2018-11-28T09:46:26.493Z,28.52
2018-11-28T09:51:19.807Z,34.08
2018-11-28T09:56:13.161Z,30.37
2018-11-28T10:01:06.516Z,27.48
2018-11-28T10:05:59.787Z,32.40
2018-11-28T10:10:53.055Z,28.80
2018-11-28T10:15:46.432Z,29.48
2018-11-28T10:20:39.677Z,25.57
2018-11-28T10:25:33.004Z,27.45
2018-11-28T10:30:29.235Z,29.07
2018-11-28T10:35:22.434Z,25.02
2018-11-28T10:40:17.814Z,29.30
2018-11-28T10:45:13.725Z,25.48
2018-11-28T10:50:11.178Z,26.52
2018-11-28T10:55:05.773Z,27.62
2018-11-28T10:59:59.136Z,24.35
2018-11-28T11:04:58.275Z,25.88
2018-11-28T11:09:57.241Z,24.65
2018-11-28T11:14:50.564Z,26.02
2018-11-28T11:19:43.903Z,24.90
2018-11-28T11:24:37.255Z,27.10
2018-11-28T11:29:30.552Z,24.37
2018-11-28T11:34:23.835Z,23.87
2018-11-28T11:39:17.142Z,24.60
2018-11-28T11:44:10.498Z,24.82
2018-11-28T11:49:04.200Z,22.25
2018-11-28T11:53:57.555Z,24.07
2018-11-28T11:58:50.895Z,25.12
2018-11-28T12:03:44.244Z,28.20
2018-11-28T12:08:37.559Z,23.62
2018-11-28T12:13:30.895Z,25.17
2018-11-28T12:18:24.235Z,23.25
2018-11-28T12:23:17.610Z,24.95
2018-11-28T12:28:11.012Z,23.22
2018-11-28T12:33:04.581Z,20.57
2018-11-28T12:37:59.903Z,23.35
2018-11-28T12:42:53.400Z,24.23
2018-11-28T12:47:47.615Z,22.35
2018-11-28T12:52:40.962Z,22.62
2018-11-28T12:57:34.257Z,24.65
2018-11-28T13:02:27.511Z,19.65
2018-11-28T13:07:20.741Z,23.60
2018-11-28T13:12:14.129Z,20.72
2018-11-28T13:17:07.482Z,19.82
2018-11-28T13:22:00.781Z,19.85
2018-11-28T13:26:54.058Z,18.87
2018-11-28T13:31:47.393Z,20.23
2018-11-28T13:36:40.674Z,20.23
2018-11-28T13:41:33.948Z,18.95
2018-11-28T13:46:27.295Z,21.30
2018-11-28T13:51:20.557Z,20.25
2018-11-28T13:56:58.153Z,19.73
2018-11-28T14:01:08.375Z,18.20
2018-11-28T14:06:01.641Z,17.00
2018-11-28T14:10:55.453Z,17.27
2018-11-28T14:15:48.718Z,20.62
2018-11-28T14:20:42.107Z,18.52
2018-11-28T14:25:35.619Z,20.00
2018-11-28T14:30:28.912Z,19.65
2018-11-28T14:35:22.982Z,19.48
2018-11-28T14:40:19.603Z,22.67
2018-11-28T14:45:15.769Z,18.67
2018-11-28T14:50:15.547Z,19.48
2018-11-28T14:55:13.117Z,20.45
2018-11-28T15:00:19.748Z,21.48
2018-11-28T15:05:36.294Z,21.87
2018-11-28T15:11:07.019Z,21.23
2018-11-28T15:16:00.826Z,21.80
2018-11-28T15:20:54.134Z,21.65
2018-11-28T15:25:47.491Z,21.33
2018-11-28T15:30:40.838Z,24.20
2018-11-28T15:35:34.173Z,21.95
2018-11-28T15:40:27.475Z,24.85
2018-11-28T15:45:20.789Z,25.40
2018-11-28T15:50:14.167Z,24.70
2018-11-28T15:55:10.284Z,27.02
2018-11-28T16:00:04.608Z,25.50
2018-11-28T16:04:57.962Z,26.65
2018-11-28T16:09:56.834Z,30.32
2018-11-28T16:14:50.094Z,30.40
2018-11-28T16:19:43.393Z,27.35
2018-11-28T16:24:36.794Z,30.70
2018-11-28T16:29:30.109Z,29.32
2018-11-28T16:34:23.355Z,31.02
2018-11-28T16:39:16.660Z,30.60
2018-11-28T16:44:10.056Z,30.12
2018-11-28T16:49:03.460Z,30.62
2018-11-28T16:53:57.194Z,31.37
2018-11-28T16:58:50.496Z,31.12
2018-11-28T17:03:43.999Z,31.45
2018-11-28T17:08:37.290Z,29.42
2018-11-28T17:13:30.567Z,29.18
2018-11-28T17:18:23.794Z,28.20
2018-11-28T17:23:17.089Z,30.08
2018-11-28T17:28:10.987Z,27.93
2018-11-28T17:33:05.110Z,29.52
2018-11-28T17:37:58.363Z,27.22
2018-11-28T17:42:53.642Z,30.00
2018-11-28T17:47:46.982Z,29.50
2018-11-28T17:52:40.724Z,28.35
2018-11-28T17:57:34.005Z,27.77
2018-11-28T18:02:27.302Z,28.87
2018-11-28T18:07:20.550Z,26.50
2018-11-28T18:12:13.793Z,26.17
2018-11-28T18:17:07.250Z,25.48
2018-11-28T18:22:00.543Z,26.87
2018-11-28T18:26:53.842Z,26.82
2018-11-28T18:31:47.488Z,28.25
2018-11-28T18:36:40.744Z,25.23
2018-11-28T18:41:34.036Z,22.75
2018-11-28T18:46:27.325Z,21.45
2018-11-28T18:51:20.624Z,25.95
2018-11-28T18:56:13.907Z,21.25
2018-11-28T19:01:07.207Z,20.32
2018-11-28T19:06:00.527Z,20.25
2018-11-28T19:10:53.869Z,20.75
2018-11-28T19:15:48.227Z,19.82
2018-11-28T19:20:41.511Z,20.25
2018-11-28T19:25:34.796Z,18.92
2018-11-28T19:30:35.436Z,18.35
2018-11-28T19:35:28.945Z,19.15
2018-11-28T19:40:35.636Z,15.20
2018-11-28T19:45:29.013Z,20.02
2018-11-28T19:50:26.018Z,17.55
2018-11-28T19:55:19.382Z,16.90
2018-11-28T20:00:17.688Z,18.20
2018-11-28T20:05:11.120Z,17.65
2018-11-28T20:10:08.019Z,16.45
2018-11-28T20:15:01.257Z,17.77
2018-11-28T20:19:55.274Z,15.60
2018-11-28T20:24:48.541Z,15.23
2018-11-28T20:29:41.891Z,14.13
2018-11-28T20:34:35.176Z,16.02
2018-11-28T20:39:28.500Z,13.55
2018-11-28T20:44:21.785Z,13.85
2018-11-28T20:49:15.037Z,13.05
2018-11-28T20:54:08.341Z,12.65
2018-11-28T20:59:01.687Z,13.45
2018-11-28T21:03:54.990Z,16.45
2018-11-28T21:08:48.309Z,12.70
2018-11-28T21:13:41.593Z,11.53
2018-11-28T21:18:34.869Z,12.55
2018-11-28T21:23:28.177Z,13.22
2018-11-28T21:28:21.787Z,11.28
2018-11-28T21:33:15.325Z,12.93
2018-11-28T21:38:09.071Z,12.30
2018-11-28T21:43:02.403Z,11.95
2018-11-28T21:47:57.179Z,9.85
2018-11-28T21:52:50.521Z,9.65
2018-11-28T21:57:43.868Z,9.75
2018-11-28T22:02:37.148Z,8.83
2018-11-28T22:07:30.399Z,10.10
2018-11-28T22:12:23.708Z,9.38
2018-11-28T22:17:17.040Z,9.48
2018-11-28T22:22:10.318Z,9.63
2018-11-28T22:27:03.634Z,9.50
2018-11-28T22:31:56.985Z,9.80
2018-11-28T22:36:50.286Z,10.43
2018-11-28T22:41:43.572Z,8.95
2018-11-28T22:46:37.145Z,10.05
2018-11-28T22:51:30.467Z,9.43
2018-11-28T22:56:23.762Z,10.03
2018-11-28T23:01:21.695Z,8.53
2018-11-28T23:06:14.961Z,10.40
2018-11-28T23:11:08.184Z,9.98
2018-11-28T23:16:01.616Z,8.68
2018-11-28T23:20:54.953Z,8.98
2018-11-28T23:25:48.306Z,7.67
2018-11-28T23:30:41.600Z,9.80
2018-11-28T23:35:34.966Z,7.75
2018-11-28T23:40:28.212Z,8.20
2018-11-28T23:45:21.818Z,7.17
2018-11-28T23:50:17.277Z,7.50
2018-11-28T23:55:18.158Z,7.72
